createdAt,value
2023-05-09T00:00:04.276Z,89.50
2023-05-09T00:00:17.175Z,89.70
2023-05-09T00:00:31.367Z,89.70
2023-05-09T00:00:42.089Z,89.70
2023-05-09T00:00:55.268Z,89.70
2023-05-09T00:01:06.003Z,89.70
2023-05-09T00:01:19.202Z,89.70
2023-05-09T00:01:30.934Z,89.60
2023-05-09T00:01:41.683Z,89.60
2023-05-09T00:01:52.453Z,89.60
2023-05-09T00:02:03.207Z,89.50
2023-05-09T00:02:13.982Z,89.50
2023-05-09T00:02:26.486Z,89.50
2023-05-09T00:02:38.761Z,89.50
2023-05-09T00:02:51.296Z,89.50
2023-05-09T00:03:03.171Z,89.50
2023-05-09T00:03:14.848Z,89.50
2023-05-09T00:03:27.225Z,89.50
2023-05-09T00:03:39.671Z,89.60
2023-05-09T00:03:52.390Z,89.81
2023-05-09T00:04:04.238Z,90.11
2023-05-09T00:04:16.697Z,90.32
2023-05-09T00:04:28.436Z,90.42
2023-05-09T00:04:40.188Z,90.52
2023-05-09T00:04:53.380Z,90.52
2023-05-09T00:05:04.135Z,90.73
2023-05-09T00:05:16.695Z,90.73
2023-05-09T00:05:27.518Z,90.62
2023-05-09T00:05:39.247Z,90.52
2023-05-09T00:05:49.937Z,90.42
2023-05-09T00:06:02.156Z,90.42
2023-05-09T00:06:14.552Z,90.42
2023-05-09T00:06:25.387Z,90.42
2023-05-09T00:06:36.209Z,90.42
2023-05-09T00:06:47.897Z,90.42
2023-05-09T00:06:59.391Z,90.32
2023-05-09T00:07:10.103Z,90.22
2023-05-09T00:07:21.798Z,90.22
2023-05-09T00:07:34.270Z,90.22
2023-05-09T00:07:46.479Z,90.22
2023-05-09T00:07:59.711Z,90.22
2023-05-09T00:08:10.465Z,90.32
2023-05-09T00:08:21.231Z,90.32
2023-05-09T00:08:31.987Z,90.32
2023-05-09T00:08:44.440Z,90.32
2023-05-09T00:08:56.137Z,90.22
2023-05-09T00:09:06.897Z,90.22
2023-05-09T00:09:17.581Z,90.11
2023-05-09T00:09:28.297Z,90.11
2023-05-09T00:09:40.006Z,90.11
2023-05-09T00:09:51.689Z,90.11
2023-05-09T00:10:02.443Z,90.05
2023-05-09T00:10:14.232Z,90.05
2023-05-09T00:10:24.957Z,90.05
2023-05-09T00:10:35.731Z,90.05
2023-05-09T00:10:46.402Z,90.05
2023-05-09T00:10:57.151Z,90.05
2023-05-09T00:11:09.529Z,89.95
2023-05-09T00:11:21.699Z,90.16
2023-05-09T00:11:32.399Z,90.16
2023-05-09T00:11:43.128Z,90.16
2023-05-09T00:11:54.824Z,90.26
2023-05-09T00:12:05.557Z,90.26
2023-05-09T00:12:16.269Z,90.36
2023-05-09T00:12:27.023Z,90.36
2023-05-09T00:12:37.734Z,90.36
2023-05-09T00:12:50.702Z,90.36
2023-05-09T00:13:01.443Z,90.36
2023-05-09T00:13:12.250Z,90.36
2023-05-09T00:13:23.048Z,90.46
2023-05-09T00:13:34.758Z,90.46
2023-05-09T00:13:45.421Z,90.46
2023-05-09T00:13:56.140Z,90.36
2023-05-09T00:14:08.558Z,90.36
2023-05-09T00:14:19.287Z,90.36
2023-05-09T00:14:30.009Z,90.26
2023-05-09T00:14:40.754Z,90.26
2023-05-09T00:14:52.978Z,90.16
2023-05-09T00:15:03.725Z,90.16
2023-05-09T00:15:14.630Z,90.16
2023-05-09T00:15:25.460Z,90.16
2023-05-09T00:15:37.878Z,90.26
2023-05-09T00:15:49.818Z,90.26
2023-05-09T00:16:02.122Z,90.26
2023-05-09T00:16:12.907Z,90.36
2023-05-09T00:16:23.609Z,90.36
2023-05-09T00:16:34.332Z,90.36
2023-05-09T00:16:45.034Z,90.36
2023-05-09T00:16:56.801Z,90.36
2023-05-09T00:17:07.475Z,90.36
2023-05-09T00:17:18.222Z,90.36
2023-05-09T00:17:28.991Z,90.26
2023-05-09T00:17:39.685Z,90.26
2023-05-09T00:17:51.405Z,90.26
2023-05-09T00:18:03.882Z,90.26
2023-05-09T00:18:14.649Z,90.46
2023-05-09T00:18:26.825Z,90.56
2023-05-09T00:18:39.257Z,90.67
2023-05-09T00:18:51.009Z,90.67
2023-05-09T00:19:01.782Z,90.67
2023-05-09T00:19:13.468Z,90.56
2023-05-09T00:19:24.392Z,90.56
2023-05-09T00:19:35.181Z,90.56
2023-05-09T00:19:45.960Z,90.46
2023-05-09T00:19:56.653Z,90.46
2023-05-09T00:20:08.345Z,90.46
2023-05-09T00:20:20.079Z,90.46
2023-05-09T00:20:30.818Z,90.46
2023-05-09T00:20:41.578Z,90.56
2023-05-09T00:20:53.293Z,90.56
2023-05-09T00:21:04.034Z,90.56
2023-05-09T00:21:16.442Z,90.56
2023-05-09T00:21:27.141Z,90.56
2023-05-09T00:21:37.885Z,90.56
2023-05-09T00:21:50.326Z,90.56
2023-05-09T00:22:02.771Z,90.56
2023-05-09T00:22:15.191Z,90.56
2023-05-09T00:22:25.904Z,90.46
2023-05-09T00:22:37.559Z,90.56
2023-05-09T00:22:49.767Z,90.56
2023-05-09T00:23:01.498Z,90.56
2023-05-09T00:23:12.198Z,90.67
2023-05-09T00:23:24.775Z,90.77
2023-05-09T00:23:35.523Z,90.87
2023-05-09T00:23:46.263Z,91.08
2023-05-09T00:23:58.643Z,91.28
2023-05-09T00:24:10.309Z,91.38
2023-05-09T00:24:21.049Z,91.49
2023-05-09T00:24:31.758Z,91.59
2023-05-09T00:24:43.502Z,91.59
2023-05-09T00:24:54.268Z,91.49
2023-05-09T00:25:05.118Z,91.49
2023-05-09T00:25:17.645Z,91.38
2023-05-09T00:25:28.374Z,91.49
2023-05-09T00:25:39.093Z,91.38
2023-05-09T00:25:51.581Z,91.38
2023-05-09T00:26:02.293Z,91.28
2023-05-09T00:26:14.872Z,91.28
2023-05-09T00:26:26.564Z,91.18
2023-05-09T00:26:37.262Z,91.18
2023-05-09T00:26:48.962Z,91.08
2023-05-09T00:26:59.688Z,90.97
2023-05-09T00:27:10.462Z,90.97
2023-05-09T00:27:22.154Z,90.97
2023-05-09T00:27:32.856Z,90.87
2023-05-09T00:27:43.558Z,90.87
2023-05-09T00:27:56.026Z,90.87
2023-05-09T00:28:06.773Z,90.87
2023-05-09T00:28:17.506Z,90.87
2023-05-09T00:28:28.207Z,90.97
2023-05-09T00:28:39.933Z,90.97
2023-05-09T00:28:50.749Z,90.97
2023-05-09T00:29:04.409Z,90.97
2023-05-09T00:29:17.106Z,91.08
2023-05-09T00:29:27.813Z,91.28
2023-05-09T00:29:39.533Z,91.38
2023-05-09T00:29:52.728Z,91.38
2023-05-09T00:30:04.405Z,91.28
2023-05-09T00:30:16.332Z,91.28
2023-05-09T00:30:27.988Z,91.18
2023-05-09T00:30:40.401Z,91.18
2023-05-09T00:30:52.826Z,91.18
2023-05-09T00:31:05.273Z,91.08
2023-05-09T00:31:16.009Z,91.18
2023-05-09T00:31:29.222Z,91.18
2023-05-09T00:31:40.012Z,91.18
2023-05-09T00:31:51.758Z,91.28
2023-05-09T00:32:03.461Z,91.18
2023-05-09T00:32:15.182Z,91.18
2023-05-09T00:32:25.932Z,91.18
2023-05-09T00:32:37.618Z,91.18
2023-05-09T00:32:48.334Z,91.18
2023-05-09T00:33:00.731Z,91.18
2023-05-09T00:33:13.639Z,91.08
2023-05-09T00:33:25.342Z,91.08
2023-05-09T00:33:36.979Z,91.08
2023-05-09T00:33:48.691Z,91.08
2023-05-09T00:34:00.387Z,90.97
2023-05-09T00:34:11.103Z,90.97
2023-05-09T00:34:21.822Z,90.87
2023-05-09T00:34:35.471Z,90.91
2023-05-09T00:34:46.148Z,90.91
2023-05-09T00:34:56.856Z,90.81
2023-05-09T00:35:09.285Z,90.81
2023-05-09T00:35:19.963Z,90.81
2023-05-09T00:35:30.735Z,90.81
2023-05-09T00:35:41.498Z,90.91
2023-05-09T00:35:53.199Z,91.02
2023-05-09T00:36:04.912Z,91.02
2023-05-09T00:36:16.563Z,91.02
2023-05-09T00:36:27.325Z,90.91
2023-05-09T00:36:38.990Z,90.91
2023-05-09T00:36:49.767Z,90.91
2023-05-09T00:37:00.515Z,90.91
2023-05-09T00:37:12.224Z,90.81
2023-05-09T00:37:23.973Z,90.81
2023-05-09T00:37:34.702Z,90.81
2023-05-09T00:37:47.223Z,90.81
2023-05-09T00:37:58.010Z,90.81
2023-05-09T00:38:08.736Z,90.71
2023-05-09T00:38:19.452Z,90.71
2023-05-09T00:38:31.131Z,90.81
2023-05-09T00:38:41.854Z,90.81
2023-05-09T00:38:52.577Z,90.81
2023-05-09T00:39:03.332Z,90.81
2023-05-09T00:39:14.012Z,90.81
2023-05-09T00:39:25.752Z,90.81
2023-05-09T00:39:36.477Z,90.71
2023-05-09T00:39:48.219Z,90.71
2023-05-09T00:39:58.927Z,90.71
2023-05-09T00:40:09.757Z,90.71
2023-05-09T00:40:20.540Z,90.61
2023-05-09T00:40:32.265Z,90.61
2023-05-09T00:40:45.426Z,90.61
2023-05-09T00:40:56.143Z,90.61
2023-05-09T00:41:08.544Z,90.61
2023-05-09T00:41:20.225Z,90.61
2023-05-09T00:41:30.972Z,90.61
2023-05-09T00:41:41.752Z,90.71
2023-05-09T00:41:54.169Z,90.71
2023-05-09T00:42:06.589Z,90.81
2023-05-09T00:42:17.327Z,90.91
2023-05-09T00:42:29.771Z,90.91
2023-05-09T00:42:42.682Z,90.91
2023-05-09T00:42:55.062Z,90.91
2023-05-09T00:43:07.489Z,90.95
2023-05-09T00:43:18.179Z,90.95
2023-05-09T00:43:28.868Z,90.95
2023-05-09T00:43:40.582Z,90.85
2023-05-09T00:43:51.339Z,90.85
2023-05-09T00:44:03.790Z,90.85
2023-05-09T00:44:16.186Z,90.95
2023-05-09T00:44:27.860Z,90.95
2023-05-09T00:44:39.548Z,90.95
2023-05-09T00:44:52.706Z,90.95
2023-05-09T00:45:03.444Z,90.95
2023-05-09T00:45:15.305Z,91.06
2023-05-09T00:45:27.155Z,91.06
2023-05-09T00:45:37.870Z,91.06
2023-05-09T00:45:49.547Z,91.06
2023-05-09T00:46:00.282Z,91.16
2023-05-09T00:46:11.935Z,91.16
2023-05-09T00:46:24.138Z,91.27
2023-05-09T00:46:35.844Z,91.27
2023-05-09T00:46:47.611Z,91.27
2023-05-09T00:46:58.335Z,91.37
2023-05-09T00:47:11.512Z,91.47
2023-05-09T00:47:23.251Z,91.47
2023-05-09T00:47:36.503Z,91.47
2023-05-09T00:47:47.326Z,91.47
2023-05-09T00:47:58.083Z,91.47
2023-05-09T00:48:08.791Z,91.47
2023-05-09T00:48:20.545Z,91.47
2023-05-09T00:48:32.269Z,91.47
2023-05-09T00:48:42.956Z,91.47
2023-05-09T00:48:53.682Z,91.47
2023-05-09T00:49:04.441Z,91.47
2023-05-09T00:49:16.891Z,91.47
2023-05-09T00:49:28.571Z,91.47
2023-05-09T00:49:40.263Z,91.57
2023-05-09T00:49:50.984Z,91.57
2023-05-09T00:50:03.666Z,91.57
2023-05-09T00:50:15.852Z,91.57
2023-05-09T00:50:28.298Z,91.67
2023-05-09T00:50:39.935Z,91.67
2023-05-09T00:50:50.649Z,91.78
2023-05-09T00:51:01.519Z,91.88
2023-05-09T00:51:13.280Z,91.99
2023-05-09T00:51:24.037Z,91.99
2023-05-09T00:51:34.735Z,92.08
2023-05-09T00:51:47.124Z,92.19
2023-05-09T00:51:59.551Z,92.19
2023-05-09T00:52:11.963Z,92.19
2023-05-09T00:52:23.907Z,92.19
2023-05-09T00:52:34.700Z,92.29
2023-05-09T00:52:47.130Z,92.29
2023-05-09T00:52:58.855Z,92.29
2023-05-09T00:53:09.611Z,92.19
2023-05-09T00:53:20.338Z,92.19
2023-05-09T00:53:32.767Z,92.08
2023-05-09T00:53:43.523Z,92.08
2023-05-09T00:53:54.242Z,91.99
2023-05-09T00:54:08.484Z,91.99
2023-05-09T00:54:20.794Z,91.88
2023-05-09T00:54:31.584Z,91.88
2023-05-09T00:54:42.375Z,91.88
2023-05-09T00:54:54.584Z,91.99
2023-05-09T00:55:05.441Z,91.99
2023-05-09T00:55:16.426Z,91.99
2023-05-09T00:55:29.029Z,91.99
2023-05-09T00:55:39.712Z,91.88
2023-05-09T00:55:51.418Z,91.88
2023-05-09T00:56:04.092Z,91.78
2023-05-09T00:56:15.830Z,91.78
2023-05-09T00:56:28.215Z,91.78
2023-05-09T00:56:38.953Z,91.78
2023-05-09T00:56:50.639Z,91.78
2023-05-09T00:57:01.381Z,91.78
2023-05-09T00:57:14.530Z,91.78
2023-05-09T00:57:25.292Z,91.88
2023-05-09T00:57:36.108Z,91.99
2023-05-09T00:57:46.806Z,91.99
2023-05-09T00:57:57.527Z,92.08
2023-05-09T00:58:08.237Z,92.08
2023-05-09T00:58:18.951Z,91.99
2023-05-09T00:58:29.710Z,91.99
2023-05-09T00:58:40.412Z,91.99
2023-05-09T00:58:51.120Z,91.88
2023-05-09T00:59:02.818Z,91.88
2023-05-09T00:59:16.275Z,91.88
2023-05-09T00:59:28.094Z,91.78
2023-05-09T00:59:40.570Z,91.78
2023-05-09T00:59:52.232Z,91.78
2023-05-09T01:00:02.947Z,91.78
2023-05-09T01:00:14.576Z,91.88
2023-05-09T01:00:25.290Z,91.88
2023-05-09T01:00:36.017Z,91.88
2023-05-09T01:00:46.736Z,91.88
2023-05-09T01:00:58.420Z,91.88
2023-05-09T01:01:11.659Z,91.88
2023-05-09T01:01:24.041Z,91.88
2023-05-09T01:01:34.769Z,91.88
2023-05-09T01:01:45.581Z,91.88
2023-05-09T01:01:56.302Z,91.88
2023-05-09T01:02:06.999Z,91.88
2023-05-09T01:02:17.774Z,91.88
2023-05-09T01:02:30.223Z,91.99
2023-05-09T01:02:41.982Z,91.99
2023-05-09T01:02:53.936Z,91.99
2023-05-09T01:03:05.804Z,91.99
2023-05-09T01:03:16.617Z,91.99
2023-05-09T01:03:29.165Z,91.99
2023-05-09T01:03:42.216Z,92.08
2023-05-09T01:03:54.634Z,92.08
2023-05-09T01:04:07.008Z,92.08
2023-05-09T01:04:21.248Z,92.08
2023-05-09T01:04:31.950Z,92.08
2023-05-09T01:04:42.709Z,92.08
2023-05-09T01:04:55.129Z,92.08
2023-05-09T01:05:06.812Z,92.08
2023-05-09T01:05:17.652Z,92.08
2023-05-09T01:05:28.423Z,92.08
2023-05-09T01:05:40.667Z,92.08
2023-05-09T01:05:52.380Z,91.99
2023-05-09T01:06:04.556Z,91.99
2023-05-09T01:06:16.228Z,91.99
2023-05-09T01:06:26.958Z,91.99
2023-05-09T01:06:38.625Z,92.08
2023-05-09T01:06:50.885Z,92.08
2023-05-09T01:07:01.563Z,92.19
2023-05-09T01:07:12.349Z,92.19
2023-05-09T01:07:24.080Z,92.19
2023-05-09T01:07:37.267Z,92.19
2023-05-09T01:07:48.021Z,92.19
2023-05-09T01:08:00.248Z,92.19
2023-05-09T01:08:12.682Z,92.19
2023-05-09T01:08:25.125Z,92.19
2023-05-09T01:08:36.794Z,92.29
2023-05-09T01:08:48.486Z,92.29
2023-05-09T01:08:59.180Z,92.29
2023-05-09T01:09:10.852Z,92.29
2023-05-09T01:09:21.598Z,92.40
2023-05-09T01:09:33.263Z,92.50
2023-05-09T01:09:44.938Z,92.60
2023-05-09T01:09:55.662Z,92.60
2023-05-09T01:10:06.359Z,92.70
2023-05-09T01:10:18.034Z,92.70
2023-05-09T01:10:30.220Z,92.80
2023-05-09T01:10:43.151Z,92.80
2023-05-09T01:10:53.875Z,92.70
2023-05-09T01:11:04.616Z,92.70
2023-05-09T01:11:17.295Z,92.70
2023-05-09T01:11:29.753Z,92.80
2023-05-09T01:11:40.500Z,92.80
2023-05-09T01:11:51.235Z,92.80
2023-05-09T01:12:04.362Z,92.70
2023-05-09T01:12:15.132Z,92.70
2023-05-09T01:12:28.391Z,92.70
2023-05-09T01:12:41.655Z,92.70
2023-05-09T01:12:52.411Z,92.70
2023-05-09T01:13:04.106Z,92.70
2023-05-09T01:13:15.838Z,92.70
2023-05-09T01:13:28.235Z,92.70
2023-05-09T01:13:38.998Z,92.70
2023-05-09T01:13:51.488Z,92.70
2023-05-09T01:14:04.655Z,92.70
2023-05-09T01:14:17.322Z,92.70
2023-05-09T01:14:28.044Z,92.70
2023-05-09T01:14:38.726Z,92.70
2023-05-09T01:14:52.039Z,92.70
2023-05-09T01:15:02.752Z,92.70
2023-05-09T01:15:14.662Z,92.70
2023-05-09T01:15:28.152Z,92.70
2023-05-09T01:15:39.926Z,92.70
2023-05-09T01:15:50.618Z,92.70
2023-05-09T01:16:03.101Z,92.70
2023-05-09T01:16:15.844Z,92.66
2023-05-09T01:16:29.034Z,92.60
2023-05-09T01:16:39.753Z,92.60
2023-05-09T01:16:52.186Z,92.55
2023-05-09T01:17:03.940Z,92.55
2023-05-09T01:17:14.683Z,92.55
2023-05-09T01:17:27.915Z,92.55
2023-05-09T01:17:38.671Z,92.46
2023-05-09T01:17:50.343Z,92.46
2023-05-09T01:18:03.516Z,92.46
2023-05-09T01:18:14.375Z,92.46
2023-05-09T01:18:26.630Z,92.46
2023-05-09T01:18:37.383Z,92.46
2023-05-09T01:18:49.361Z,92.46
2023-05-09T01:19:01.524Z,92.46
2023-05-09T01:19:12.304Z,92.46
2023-05-09T01:19:23.012Z,92.46
2023-05-09T01:19:33.708Z,92.46
2023-05-09T01:19:44.400Z,92.35
2023-05-09T01:19:56.836Z,92.35
2023-05-09T01:20:07.594Z,92.35
2023-05-09T01:20:19.293Z,92.35
2023-05-09T01:20:31.200Z,92.35
2023-05-09T01:20:41.955Z,92.35
2023-05-09T01:20:54.871Z,92.25
2023-05-09T01:21:06.564Z,92.25
2023-05-09T01:21:17.308Z,92.25
2023-05-09T01:21:29.508Z,92.35
2023-05-09T01:21:41.954Z,92.35
2023-05-09T01:21:52.703Z,92.35
2023-05-09T01:22:03.413Z,92.35
2023-05-09T01:22:14.105Z,92.35
2023-05-09T01:22:26.551Z,92.35
2023-05-09T01:22:37.268Z,92.35
2023-05-09T01:22:47.996Z,92.35
2023-05-09T01:22:58.683Z,92.35
2023-05-09T01:23:11.921Z,92.35
2023-05-09T01:23:24.309Z,92.35
2023-05-09T01:23:36.728Z,92.35
2023-05-09T01:23:47.481Z,92.46
2023-05-09T01:23:58.320Z,92.46
2023-05-09T01:24:10.806Z,92.46
2023-05-09T01:24:22.517Z,92.46
2023-05-09T01:24:34.203Z,92.46
2023-05-09T01:24:46.642Z,92.46
2023-05-09T01:24:58.846Z,92.46
2023-05-09T01:25:12.218Z,92.55
2023-05-09T01:25:24.769Z,92.55
2023-05-09T01:25:37.958Z,92.55
2023-05-09T01:25:48.687Z,92.55
2023-05-09T01:26:01.887Z,92.46
2023-05-09T01:26:14.110Z,92.35
2023-05-09T01:26:26.778Z,92.25
2023-05-09T01:26:38.452Z,92.14
2023-05-09T01:26:50.920Z,92.14
2023-05-09T01:27:05.099Z,92.04
2023-05-09T01:27:16.788Z,92.04
2023-05-09T01:27:27.492Z,91.94
2023-05-09T01:27:38.225Z,91.94
2023-05-09T01:27:48.925Z,91.94
2023-05-09T01:27:59.681Z,91.94
2023-05-09T01:28:10.471Z,91.84
2023-05-09T01:28:21.221Z,91.84
2023-05-09T01:28:31.925Z,91.74
2023-05-09T01:28:43.598Z,91.63
2023-05-09T01:28:56.063Z,91.63
2023-05-09T01:29:08.506Z,91.63
2023-05-09T01:29:20.179Z,91.74
2023-05-09T01:29:30.922Z,91.63
2023-05-09T01:29:41.661Z,91.63
2023-05-09T01:29:53.338Z,91.63
2023-05-09T01:30:04.070Z,91.63
2023-05-09T01:30:15.747Z,91.53
2023-05-09T01:30:28.236Z,91.42
2023-05-09T01:30:40.124Z,91.33
2023-05-09T01:30:50.832Z,91.33
2023-05-09T01:31:03.806Z,91.22
2023-05-09T01:31:16.949Z,91.22
2023-05-09T01:31:29.462Z,91.22
2023-05-09T01:31:40.291Z,91.22
2023-05-09T01:31:52.724Z,91.22
2023-05-09T01:32:04.467Z,91.22
2023-05-09T01:32:16.635Z,91.12
2023-05-09T01:32:28.917Z,91.12
2023-05-09T01:32:43.147Z,91.12
2023-05-09T01:32:56.363Z,91.12
2023-05-09T01:33:10.042Z,91.12
2023-05-09T01:33:20.777Z,91.12
2023-05-09T01:33:31.519Z,91.12
2023-05-09T01:33:43.947Z,91.22
2023-05-09T01:33:56.870Z,91.22
2023-05-09T01:34:09.057Z,91.22
2023-05-09T01:34:21.001Z,91.33
2023-05-09T01:34:33.427Z,91.33
2023-05-09T01:34:45.754Z,91.42
2023-05-09T01:34:57.444Z,91.42
2023-05-09T01:35:08.199Z,91.42
2023-05-09T01:35:18.921Z,91.42
2023-05-09T01:35:31.632Z,91.42
2023-05-09T01:35:42.345Z,91.53
2023-05-09T01:35:53.031Z,91.53
2023-05-09T01:36:05.719Z,91.49
2023-05-09T01:36:19.863Z,91.53
2023-05-09T01:36:31.532Z,91.49
2023-05-09T01:36:42.252Z,91.49
2023-05-09T01:36:54.445Z,91.38
2023-05-09T01:37:05.275Z,91.38
2023-05-09T01:37:15.976Z,91.38
2023-05-09T01:37:26.683Z,91.38
2023-05-09T01:37:37.504Z,91.28
2023-05-09T01:37:48.211Z,91.28
2023-05-09T01:37:58.902Z,91.28
2023-05-09T01:38:10.641Z,91.28
2023-05-09T01:38:22.373Z,91.28
2023-05-09T01:38:34.886Z,91.28
2023-05-09T01:38:45.609Z,91.28
2023-05-09T01:38:56.316Z,91.28
2023-05-09T01:39:07.018Z,91.28
2023-05-09T01:39:17.758Z,91.18
2023-05-09T01:39:29.960Z,91.18
2023-05-09T01:39:43.401Z,91.28
2023-05-09T01:39:54.092Z,91.28
2023-05-09T01:40:04.862Z,91.28
2023-05-09T01:40:18.502Z,91.18
2023-05-09T01:40:30.281Z,91.28
2023-05-09T01:40:41.029Z,91.28
2023-05-09T01:40:51.802Z,91.28
2023-05-09T01:41:02.497Z,91.28
2023-05-09T01:41:14.908Z,91.28
2023-05-09T01:41:26.588Z,91.28
2023-05-09T01:41:37.278Z,91.28
2023-05-09T01:41:48.943Z,91.38
2023-05-09T01:42:01.139Z,91.38
2023-05-09T01:42:13.316Z,91.49
2023-05-09T01:42:25.488Z,91.38
2023-05-09T01:42:36.224Z,91.38
2023-05-09T01:42:48.636Z,91.28
2023-05-09T01:42:59.327Z,91.28
2023-05-09T01:43:11.742Z,91.18
2023-05-09T01:43:24.926Z,91.08
2023-05-09T01:43:35.714Z,91.08
2023-05-09T01:43:47.204Z,91.08
2023-05-09T01:43:57.904Z,90.97
2023-05-09T01:44:08.646Z,90.97
2023-05-09T01:44:19.312Z,90.97
2023-05-09T01:44:32.216Z,90.97
2023-05-09T01:44:42.950Z,91.08
2023-05-09T01:44:55.132Z,90.97
2023-05-09T01:45:06.905Z,91.08
2023-05-09T01:45:17.869Z,91.08
2023-05-09T01:45:30.292Z,91.18
2023-05-09T01:45:42.726Z,91.18
2023-05-09T01:45:54.414Z,91.18
2023-05-09T01:46:06.136Z,91.18
2023-05-09T01:46:16.832Z,91.24
2023-05-09T01:46:29.300Z,91.24
2023-05-09T01:46:40.004Z,91.24
2023-05-09T01:46:50.787Z,91.35
2023-05-09T01:47:01.508Z,91.35
2023-05-09T01:47:13.983Z,91.35
2023-05-09T01:47:26.408Z,91.24
2023-05-09T01:47:40.081Z,91.14
2023-05-09T01:47:52.533Z,91.03
2023-05-09T01:48:05.211Z,90.93
2023-05-09T01:48:15.920Z,90.93
2023-05-09T01:48:27.632Z,90.93
2023-05-09T01:48:39.294Z,90.83
2023-05-09T01:48:51.700Z,90.83
2023-05-09T01:49:02.429Z,90.73
2023-05-09T01:49:14.140Z,90.73
2023-05-09T01:49:24.862Z,90.62
2023-05-09T01:49:37.272Z,90.62
2023-05-09T01:49:49.723Z,90.52
2023-05-09T01:50:01.468Z,90.42
2023-05-09T01:50:13.399Z,90.42
2023-05-09T01:50:25.116Z,90.42
2023-05-09T01:50:36.858Z,90.42
2023-05-09T01:50:47.588Z,90.42
2023-05-09T01:51:00.001Z,90.42
2023-05-09T01:51:12.429Z,90.42
2023-05-09T01:51:24.861Z,90.52
2023-05-09T01:51:35.574Z,90.52
2023-05-09T01:51:47.295Z,90.52
2023-05-09T01:51:58.997Z,90.52
2023-05-09T01:52:10.678Z,90.52
2023-05-09T01:52:21.394Z,90.42
2023-05-09T01:52:32.125Z,90.42
2023-05-09T01:52:44.325Z,90.42
2023-05-09T01:52:55.044Z,90.42
2023-05-09T01:53:06.804Z,90.32
2023-05-09T01:53:18.511Z,90.22
2023-05-09T01:53:29.265Z,90.22
2023-05-09T01:53:42.440Z,90.22
2023-05-09T01:53:54.643Z,90.22
2023-05-09T01:54:05.323Z,90.22
2023-05-09T01:54:16.983Z,90.22
2023-05-09T01:54:28.672Z,90.32
2023-05-09T01:54:40.430Z,90.32
2023-05-09T01:54:51.179Z,90.32
2023-05-09T01:55:03.351Z,90.42
2023-05-09T01:55:15.922Z,90.32
2023-05-09T01:55:28.449Z,90.22
2023-05-09T01:55:40.224Z,90.11
2023-05-09T01:55:51.054Z,90.01
2023-05-09T01:56:04.803Z,90.01
2023-05-09T01:56:16.446Z,90.01
2023-05-09T01:56:28.160Z,90.01
2023-05-09T01:56:39.853Z,90.01
2023-05-09T01:56:50.551Z,89.90
2023-05-09T01:57:03.020Z,89.90
2023-05-09T01:57:15.400Z,90.01
2023-05-09T01:57:27.376Z,90.01
2023-05-09T01:57:38.135Z,90.11
2023-05-09T01:57:52.263Z,90.01
2023-05-09T01:58:04.979Z,90.01
2023-05-09T01:58:17.915Z,90.01
2023-05-09T01:58:28.651Z,89.90
2023-05-09T01:58:41.113Z,90.01
2023-05-09T01:58:51.857Z,90.01
2023-05-09T01:59:03.542Z,90.11
2023-05-09T01:59:14.231Z,90.11
2023-05-09T01:59:24.949Z,90.11
2023-05-09T01:59:37.366Z,90.11
2023-05-09T01:59:49.064Z,90.22
2023-05-09T02:00:00.826Z,90.22
2023-05-09T02:00:12.475Z,90.32
2023-05-09T02:00:23.261Z,90.32
2023-05-09T02:00:34.083Z,90.32
2023-05-09T02:00:46.228Z,90.32
2023-05-09T02:00:57.064Z,90.32
2023-05-09T02:01:07.840Z,90.32
2023-05-09T02:01:18.588Z,90.32
2023-05-09T02:01:29.329Z,90.22
2023-05-09T02:01:41.032Z,90.22
2023-05-09T02:01:51.793Z,90.22
2023-05-09T02:02:03.538Z,90.11
2023-05-09T02:02:15.244Z,90.11
2023-05-09T02:02:27.023Z,90.11
2023-05-09T02:02:38.831Z,90.11
2023-05-09T02:02:49.631Z,90.11
2023-05-09T02:03:02.360Z,90.11
2023-05-09T02:03:14.803Z,90.11
2023-05-09T02:03:27.259Z,90.11
2023-05-09T02:03:40.424Z,90.11
2023-05-09T02:03:52.882Z,90.11
2023-05-09T02:04:04.540Z,90.11
2023-05-09T02:04:15.286Z,90.11
2023-05-09T02:04:26.991Z,90.11
2023-05-09T02:04:38.648Z,90.11
2023-05-09T02:04:49.360Z,90.22
2023-05-09T02:05:01.072Z,90.22
2023-05-09T02:05:11.986Z,90.32
2023-05-09T02:05:24.804Z,90.32
2023-05-09T02:05:37.989Z,90.32
2023-05-09T02:05:49.724Z,90.32
2023-05-09T02:06:01.454Z,90.32
2023-05-09T02:06:12.156Z,90.32
2023-05-09T02:06:24.565Z,90.22
2023-05-09T02:06:38.251Z,90.11
2023-05-09T02:06:48.971Z,90.22
2023-05-09T02:07:01.394Z,90.22
2023-05-09T02:07:13.090Z,90.22
2023-05-09T02:07:24.742Z,90.22
2023-05-09T02:07:36.449Z,90.22
2023-05-09T02:07:47.176Z,90.22
2023-05-09T02:07:58.884Z,90.22
2023-05-09T02:08:09.592Z,90.22
2023-05-09T02:08:21.800Z,90.22
2023-05-09T02:08:32.598Z,90.22
2023-05-09T02:08:43.338Z,90.22
2023-05-09T02:08:55.568Z,90.22
2023-05-09T02:09:06.305Z,90.11
2023-05-09T02:09:17.062Z,90.11
2023-05-09T02:09:27.793Z,90.11
2023-05-09T02:09:39.747Z,90.11
2023-05-09T02:09:52.219Z,90.11
2023-05-09T02:10:03.942Z,89.90
2023-05-09T02:10:14.703Z,89.90
2023-05-09T02:10:27.131Z,89.90
2023-05-09T02:10:37.864Z,89.90
2023-05-09T02:10:48.599Z,90.01
2023-05-09T02:11:00.259Z,90.01
2023-05-09T02:11:11.924Z,90.01
2023-05-09T02:11:25.655Z,90.01
2023-05-09T02:11:38.528Z,90.01
2023-05-09T02:11:51.700Z,89.90
2023-05-09T02:12:04.604Z,89.90
2023-05-09T02:12:15.329Z,89.90
2023-05-09T02:12:27.236Z,89.90
2023-05-09T02:12:37.953Z,89.90
2023-05-09T02:12:49.661Z,89.90
2023-05-09T02:13:00.448Z,89.90
2023-05-09T02:13:13.154Z,89.90
2023-05-09T02:13:24.921Z,89.70
2023-05-09T02:13:35.634Z,89.70
2023-05-09T02:13:47.333Z,89.70
2023-05-09T02:13:58.055Z,89.70
2023-05-09T02:14:09.745Z,89.70
2023-05-09T02:14:22.136Z,89.70
2023-05-09T02:14:32.826Z,89.70
2023-05-09T02:14:43.576Z,89.60
2023-05-09T02:14:54.283Z,89.60
2023-05-09T02:15:05.938Z,89.60
2023-05-09T02:15:18.360Z,89.60
2023-05-09T02:15:30.777Z,89.60
2023-05-09T02:15:43.971Z,89.60
2023-05-09T02:15:56.407Z,89.50
2023-05-09T02:16:08.625Z,89.50
2023-05-09T02:16:21.127Z,89.39
2023-05-09T02:16:33.700Z,89.39
2023-05-09T02:16:45.472Z,89.50
2023-05-09T02:16:57.757Z,89.50
2023-05-09T02:17:10.315Z,89.50
2023-05-09T02:17:21.022Z,89.50
2023-05-09T02:17:31.788Z,89.50
2023-05-09T02:17:42.534Z,89.50
2023-05-09T02:17:55.717Z,89.50
2023-05-09T02:18:06.430Z,89.39
2023-05-09T02:18:18.803Z,89.39
2023-05-09T02:18:32.525Z,89.39
2023-05-09T02:18:43.258Z,89.39
2023-05-09T02:18:56.992Z,89.39
2023-05-09T02:19:07.727Z,89.39
2023-05-09T02:19:18.447Z,89.29
2023-05-09T02:19:29.235Z,89.29
2023-05-09T02:19:41.619Z,89.29
2023-05-09T02:19:53.618Z,89.29
2023-05-09T02:20:04.317Z,89.29
2023-05-09T02:20:15.027Z,89.29
2023-05-09T02:20:25.726Z,89.29
2023-05-09T02:20:38.169Z,89.19
2023-05-09T02:20:49.975Z,89.19
2023-05-09T02:21:02.445Z,89.19
2023-05-09T02:21:14.909Z,89.19
2023-05-09T02:21:29.141Z,89.19
2023-05-09T02:21:40.968Z,89.19
2023-05-09T02:21:53.183Z,89.09
2023-05-09T02:22:03.979Z,89.09
2023-05-09T02:22:14.791Z,89.09
2023-05-09T02:22:25.480Z,89.09
2023-05-09T02:22:37.170Z,89.09
2023-05-09T02:22:47.886Z,89.09
2023-05-09T02:22:59.554Z,89.09
2023-05-09T02:23:11.965Z,89.09
2023-05-09T02:23:23.644Z,89.09
2023-05-09T02:23:34.352Z,89.09
2023-05-09T02:23:46.776Z,89.09
2023-05-09T02:23:58.439Z,89.19
2023-05-09T02:24:10.105Z,89.09
2023-05-09T02:24:20.861Z,89.09
2023-05-09T02:24:33.241Z,89.19
2023-05-09T02:24:45.644Z,89.19
2023-05-09T02:24:56.396Z,89.19
2023-05-09T02:25:07.106Z,89.19
2023-05-09T02:25:18.786Z,89.19
2023-05-09T02:25:30.518Z,89.19
2023-05-09T02:25:41.216Z,89.33
2023-05-09T02:25:53.419Z,89.29
2023-05-09T02:26:06.660Z,89.43
2023-05-09T02:26:19.069Z,89.43
2023-05-09T02:26:29.799Z,89.43
2023-05-09T02:26:42.204Z,89.43
2023-05-09T02:26:52.981Z,89.54
2023-05-09T02:27:04.736Z,89.54
2023-05-09T02:27:15.443Z,89.64
2023-05-09T02:27:26.205Z,89.64
2023-05-09T02:27:38.595Z,89.64
2023-05-09T02:27:49.307Z,89.64
2023-05-09T02:28:01.026Z,89.64
2023-05-09T02:28:13.433Z,89.64
2023-05-09T02:28:24.152Z,89.64
2023-05-09T02:28:34.848Z,89.64
2023-05-09T02:28:45.567Z,89.64
2023-05-09T02:28:57.269Z,89.75
2023-05-09T02:29:07.992Z,89.75
2023-05-09T02:29:19.723Z,89.75
2023-05-09T02:29:30.430Z,89.75